Sanger, California
Current Conditions -  °F | °C
As of 12:53 AM on Friday 24 Oct 2014 (Local Time) from KFAT Reporting Station
Scattered Clouds Scattered Clouds  
Wind Chill: 61°   Ceiling: Unl
Heat Index: 61°   Visibility: 10mi
Dew Point: 47°   Wind: 0mph
Humidity: 60%   Direction: NA
Pressure: 30"   Gusts: NA
Location:  36.71°N, 119.55°W
Report Text: KFAT 240753Z 00000KT 10SM SCT250 16/08 A3000 RMK AO2 SLP156 T01610083 402670122 $
Loading
Personal Weather Stations






























Interactive Weather Map
Tropical Storm Tracking
New forecast layout! Learn more

10-Day Weather Forecast

Advertisements
Track Severe Weather on mobile